createdAt,value
2019-05-20T11:20:27.558Z,0.00
2019-05-20T11:21:27.485Z,5.62
2019-05-20T11:22:27.496Z,5.62
2019-05-20T11:23:27.708Z,5.62
2019-05-20T11:24:27.542Z,11.25
2019-05-20T11:25:27.408Z,11.25
2019-05-20T11:26:28.143Z,11.25
2019-05-20T11:27:27.729Z,11.25
2019-05-20T11:28:27.674Z,11.25
2019-05-20T11:29:27.744Z,11.25
2019-05-20T11:30:27.648Z,5.62
2019-05-20T11:31:27.761Z,11.25
2019-05-20T11:32:27.774Z,11.25
2019-05-20T11:37:51.975Z,0.00
2019-05-20T11:38:51.793Z,5.62
2019-05-20T11:39:52.806Z,5.62
2019-05-20T11:40:51.985Z,5.62
2019-05-20T11:41:53.920Z,0.00
2019-05-20T11:42:51.897Z,5.62
2019-05-20T11:43:52.136Z,5.62
2019-05-20T11:44:53.246Z,0.00
2019-05-20T11:45:52.059Z,5.62
2019-05-20T11:46:51.923Z,0.00
2019-05-20T11:47:52.505Z,0.00
2019-05-20T11:48:51.818Z,0.00
2019-05-20T11:49:51.946Z,0.00
2019-05-20T11:50:52.290Z,0.00
2019-05-20T11:51:51.891Z,28.12
2019-05-20T11:52:51.639Z,90.00
2019-05-20T11:53:51.595Z,84.38
2019-05-20T11:54:52.291Z,73.12
2019-05-20T11:55:52.095Z,67.50
2019-05-20T11:56:51.663Z,73.12
2019-05-20T11:57:51.609Z,50.62
2019-05-20T11:58:51.718Z,123.75
2019-05-20T11:59:51.528Z,123.75
2019-05-20T12:00:51.648Z,129.38
2019-05-20T12:01:51.626Z,129.38
2019-05-20T12:02:51.531Z,78.75
2019-05-20T12:03:51.550Z,123.75
2019-05-20T12:04:51.487Z,118.12
2019-05-20T12:05:51.591Z,140.62
2019-05-20T12:06:51.771Z,129.38
2019-05-20T12:07:51.597Z,118.12
2019-05-20T12:08:51.471Z,112.50
2019-05-20T12:09:51.594Z,78.75
2019-05-20T12:10:51.517Z,90.00
2019-05-20T12:11:51.802Z,0.00
2019-05-20T12:12:51.511Z,0.00
